createdAt,value
2022-12-07T00:01:04.000Z,5.96
2022-12-07T00:01:54.000Z,5.96
2022-12-07T00:02:55.000Z,5.96
2022-12-07T00:03:59.000Z,5.98
2022-12-07T00:04:54.000Z,5.98
2022-12-07T00:05:58.000Z,5.98
2022-12-07T00:06:54.000Z,5.98
2022-12-07T00:07:54.000Z,5.98
2022-12-07T00:08:54.000Z,5.98
2022-12-07T00:09:54.000Z,5.94
2022-12-07T00:10:54.000Z,5.94
2022-12-07T00:11:54.000Z,5.92
2022-12-07T00:12:54.000Z,5.93
2022-12-07T00:14:02.000Z,5.93
2022-12-07T00:14:54.000Z,5.93
2022-12-07T00:15:54.000Z,5.93
2022-12-07T00:16:54.000Z,5.90
2022-12-07T00:17:54.000Z,5.91
2022-12-07T00:18:54.000Z,5.92
2022-12-07T00:19:54.000Z,5.90
2022-12-07T00:21:13.000Z,5.89
2022-12-07T00:21:54.000Z,5.88
2022-12-07T00:22:54.000Z,5.88
2022-12-07T00:23:55.000Z,5.89
2022-12-07T00:24:54.000Z,5.89
2022-12-07T00:25:54.000Z,5.87
2022-12-07T00:26:54.000Z,5.87
2022-12-07T00:27:56.000Z,5.86
2022-12-07T00:28:57.000Z,5.86
2022-12-07T00:29:54.000Z,5.88
2022-12-07T00:31:00.000Z,5.88
2022-12-07T00:31:54.000Z,5.87
2022-12-07T00:32:54.000Z,5.87
2022-12-07T00:33:56.000Z,5.86
2022-12-07T00:34:54.000Z,5.85
2022-12-07T00:35:55.000Z,5.84
2022-12-07T00:36:54.000Z,5.83
2022-12-07T00:37:54.000Z,5.82
2022-12-07T00:38:57.000Z,5.82
2022-12-07T00:39:54.000Z,5.81
2022-12-07T00:40:58.000Z,5.83
2022-12-07T00:41:54.000Z,5.83
2022-12-07T00:42:54.000Z,5.84
2022-12-07T00:43:54.000Z,5.82
2022-12-07T00:44:54.000Z,5.84
2022-12-07T00:45:54.000Z,5.84
2022-12-07T00:46:54.000Z,5.83
2022-12-07T00:47:54.000Z,5.85
2022-12-07T00:48:54.000Z,5.84
2022-12-07T00:49:54.000Z,5.85
2022-12-07T00:50:54.000Z,5.88
2022-12-07T00:51:54.000Z,5.88
2022-12-07T00:52:54.000Z,5.89
2022-12-07T00:53:54.000Z,5.91
2022-12-07T00:54:54.000Z,5.90
2022-12-07T00:55:55.000Z,5.88
2022-12-07T00:56:53.000Z,5.88
2022-12-07T00:57:54.000Z,5.89
2022-12-07T00:58:57.000Z,5.88
2022-12-07T00:59:56.000Z,5.87
2022-12-07T01:00:59.000Z,5.87
2022-12-07T01:01:54.000Z,5.85
2022-12-07T01:02:54.000Z,5.86
2022-12-07T01:03:54.000Z,5.85
2022-12-07T01:04:54.000Z,5.91
2022-12-07T01:05:55.000Z,5.91
2022-12-07T01:06:54.000Z,5.91
2022-12-07T01:07:54.000Z,5.88
2022-12-07T01:08:54.000Z,5.85
2022-12-07T01:09:54.000Z,5.83
2022-12-07T01:10:59.000Z,5.85
2022-12-07T01:11:54.000Z,5.85
2022-12-07T01:12:54.000Z,5.87
2022-12-07T01:13:55.000Z,5.83
2022-12-07T01:14:54.000Z,5.82
2022-12-07T01:15:57.000Z,5.81
2022-12-07T01:16:53.000Z,5.86
2022-12-07T01:17:53.000Z,5.90
2022-12-07T01:18:55.000Z,5.88
2022-12-07T01:19:53.000Z,5.89
2022-12-07T01:21:03.000Z,5.88
2022-12-07T01:21:53.000Z,5.88
2022-12-07T01:22:54.000Z,5.91
2022-12-07T01:23:56.000Z,5.88
2022-12-07T01:24:53.000Z,5.86
2022-12-07T01:25:58.000Z,5.85
2022-12-07T01:26:53.000Z,5.84
2022-12-07T01:27:54.000Z,5.88
2022-12-07T01:28:54.000Z,5.89
2022-12-07T01:29:53.000Z,5.88
2022-12-07T01:30:58.000Z,5.88
2022-12-07T01:31:53.000Z,5.90
2022-12-07T01:32:54.000Z,5.90
2022-12-07T01:33:57.000Z,5.89
2022-12-07T01:34:53.000Z,5.90
2022-12-07T01:35:59.000Z,5.89
2022-12-07T01:36:53.000Z,5.88
2022-12-07T01:37:53.000Z,5.89
2022-12-07T01:38:58.000Z,5.88
2022-12-07T01:39:53.000Z,5.90
2022-12-07T01:40:55.000Z,5.92
2022-12-07T01:41:54.000Z,5.92
2022-12-07T01:42:53.000Z,5.92
2022-12-07T01:44:16.000Z,5.92
2022-12-07T01:45:04.000Z,5.91
2022-12-07T01:45:55.000Z,5.90
2022-12-07T01:46:57.000Z,5.90
2022-12-07T01:47:56.000Z,5.89
2022-12-07T01:48:53.000Z,5.90
2022-12-07T01:49:53.000Z,5.90
2022-12-07T01:50:56.000Z,5.89
2022-12-07T01:52:02.000Z,5.91
2022-12-07T01:52:57.000Z,5.90
2022-12-07T01:53:54.000Z,5.88
2022-12-07T01:55:00.000Z,5.89
2022-12-07T01:55:56.000Z,5.88
2022-12-07T01:56:56.000Z,5.92
2022-12-07T01:57:54.000Z,5.92
2022-12-07T01:58:56.000Z,5.91
2022-12-07T01:59:55.000Z,5.88
2022-12-07T02:00:53.000Z,5.87
2022-12-07T02:01:55.000Z,5.88
2022-12-07T02:03:02.000Z,5.88
2022-12-07T02:03:54.000Z,5.87
2022-12-07T02:04:55.000Z,5.86
2022-12-07T02:05:55.000Z,5.85
2022-12-07T02:06:54.000Z,5.87
2022-12-07T02:07:56.000Z,5.88
2022-12-07T02:08:53.000Z,5.90
2022-12-07T02:09:54.000Z,5.90
2022-12-07T02:10:54.000Z,5.90
2022-12-07T02:11:54.000Z,5.89
2022-12-07T02:13:07.000Z,5.89
2022-12-07T02:13:54.000Z,5.89
2022-12-07T02:14:53.000Z,5.88
2022-12-07T02:16:04.000Z,5.87
2022-12-07T02:17:09.000Z,5.88
2022-12-07T02:18:27.000Z,5.90
2022-12-07T02:19:07.000Z,5.91
2022-12-07T02:20:03.000Z,5.92
2022-12-07T02:21:07.000Z,5.91
2022-12-07T02:22:10.000Z,5.91
2022-12-07T02:23:07.000Z,5.90
2022-12-07T02:24:04.000Z,5.90
2022-12-07T02:25:17.000Z,5.89
2022-12-07T02:26:21.000Z,5.90
2022-12-07T02:27:10.000Z,5.92
2022-12-07T02:28:03.000Z,5.89
2022-12-07T02:29:09.000Z,5.89
2022-12-07T02:30:16.000Z,5.90
2022-12-07T02:31:01.000Z,5.90
2022-12-07T02:32:07.000Z,5.88
2022-12-07T02:33:07.000Z,5.88
2022-12-07T02:34:08.000Z,5.89
2022-12-07T02:35:01.000Z,5.89
2022-12-07T02:36:05.000Z,5.91
2022-12-07T02:37:00.000Z,5.92
2022-12-07T02:38:05.000Z,5.92
2022-12-07T02:39:03.000Z,5.91
2022-12-07T02:40:01.000Z,5.90
2022-12-07T02:41:08.000Z,5.90
2022-12-07T02:42:01.000Z,5.90
2022-12-07T02:43:04.000Z,5.90
2022-12-07T02:43:58.000Z,5.90
2022-12-07T02:44:54.000Z,5.90
2022-12-07T02:46:00.000Z,5.90
2022-12-07T02:46:59.000Z,5.90
2022-12-07T02:47:57.000Z,5.90
2022-12-07T02:48:54.000Z,5.93
2022-12-07T02:49:54.000Z,5.92
2022-12-07T02:50:54.000Z,5.91
2022-12-07T02:51:53.000Z,5.88
2022-12-07T02:52:54.000Z,5.88
2022-12-07T02:53:53.000Z,5.89
2022-12-07T02:54:53.000Z,5.89
2022-12-07T02:55:54.000Z,5.90
2022-12-07T02:57:04.000Z,5.88
2022-12-07T02:58:07.000Z,5.90
2022-12-07T02:59:03.000Z,5.88
2022-12-07T03:00:04.000Z,5.89
2022-12-07T03:01:07.000Z,5.88
2022-12-07T03:02:13.000Z,5.89
2022-12-07T03:03:01.000Z,5.86
2022-12-07T03:04:06.000Z,5.86
2022-12-07T03:05:06.000Z,5.85
2022-12-07T03:06:04.000Z,5.84
2022-12-07T03:07:10.000Z,5.82
2022-12-07T03:08:06.000Z,5.84
2022-12-07T03:09:10.000Z,5.84
2022-12-07T03:10:14.000Z,5.85
2022-12-07T03:11:14.000Z,5.87
2022-12-07T03:12:03.000Z,5.84
2022-12-07T03:13:05.000Z,5.85
2022-12-07T03:14:03.000Z,5.87
2022-12-07T03:15:03.000Z,5.87
2022-12-07T03:16:03.000Z,5.87
2022-12-07T03:17:04.000Z,5.84
2022-12-07T03:17:57.000Z,5.87
2022-12-07T03:19:02.000Z,5.87
2022-12-07T03:20:00.000Z,5.87
2022-12-07T03:20:59.000Z,5.86
2022-12-07T03:22:00.000Z,5.86
2022-12-07T03:22:56.000Z,5.86
2022-12-07T03:23:58.000Z,5.86
2022-12-07T03:24:58.000Z,5.87
2022-12-07T03:25:59.000Z,5.87
2022-12-07T03:27:13.000Z,5.87
2022-12-07T03:28:00.000Z,5.88
2022-12-07T03:29:01.000Z,5.87
2022-12-07T03:30:00.000Z,5.89
2022-12-07T03:31:05.000Z,5.88
2022-12-07T03:32:01.000Z,5.88
2022-12-07T03:33:03.000Z,5.87
2022-12-07T03:34:18.000Z,5.88
2022-12-07T03:35:09.000Z,5.88
2022-12-07T03:36:07.000Z,5.87
2022-12-07T03:37:05.000Z,5.87
2022-12-07T03:38:04.000Z,5.86
2022-12-07T03:39:12.000Z,5.88
2022-12-07T03:40:14.000Z,5.87
2022-12-07T03:41:01.000Z,5.86
2022-12-07T03:41:56.000Z,5.85
2022-12-07T03:42:55.000Z,5.86
2022-12-07T03:43:56.000Z,5.85
2022-12-07T03:44:55.000Z,5.86
2022-12-07T03:46:08.000Z,5.86
2022-12-07T03:47:04.000Z,5.86
2022-12-07T03:48:15.000Z,5.86
2022-12-07T03:49:05.000Z,5.86
2022-12-07T03:49:59.000Z,5.85
2022-12-07T03:51:16.000Z,5.85
2022-12-07T03:52:02.000Z,5.85
2022-12-07T03:52:58.000Z,5.84
2022-12-07T03:54:04.000Z,5.85
2022-12-07T03:55:05.000Z,5.84
2022-12-07T03:55:56.000Z,5.84
2022-12-07T03:56:55.000Z,5.84
2022-12-07T03:57:58.000Z,5.84
2022-12-07T03:58:53.000Z,5.83
2022-12-07T03:59:55.000Z,5.83
2022-12-07T04:00:54.000Z,5.83
2022-12-07T04:01:56.000Z,5.83
2022-12-07T04:02:54.000Z,5.83
2022-12-07T04:03:53.000Z,5.82
2022-12-07T04:04:54.000Z,5.83
2022-12-07T04:05:53.000Z,5.83
2022-12-07T04:06:53.000Z,5.83
2022-12-07T04:07:53.000Z,5.85
2022-12-07T04:08:54.000Z,5.83
2022-12-07T04:09:56.000Z,5.85
2022-12-07T04:10:53.000Z,5.84
2022-12-07T04:11:53.000Z,5.85
2022-12-07T04:12:54.000Z,5.86
2022-12-07T04:13:58.000Z,5.86
2022-12-07T04:14:53.000Z,5.84
2022-12-07T04:15:53.000Z,5.86
2022-12-07T04:16:57.000Z,5.85
2022-12-07T04:17:54.000Z,5.84
2022-12-07T04:18:53.000Z,5.83
2022-12-07T04:19:54.000Z,5.83
2022-12-07T04:20:54.000Z,5.84
2022-12-07T04:21:55.000Z,5.84
2022-12-07T04:22:54.000Z,5.85
2022-12-07T04:23:54.000Z,5.83
2022-12-07T04:24:54.000Z,5.84
2022-12-07T04:25:53.000Z,5.82
2022-12-07T04:26:54.000Z,5.83
2022-12-07T04:27:54.000Z,5.83
2022-12-07T04:28:54.000Z,5.83
2022-12-07T04:29:55.000Z,5.83
2022-12-07T04:30:54.000Z,5.82
2022-12-07T04:31:54.000Z,5.82
2022-12-07T04:32:54.000Z,5.82
2022-12-07T04:33:54.000Z,5.83
2022-12-07T04:34:54.000Z,5.83
2022-12-07T04:35:54.000Z,5.84
2022-12-07T04:36:54.000Z,5.83
2022-12-07T04:37:53.000Z,5.84
2022-12-07T04:38:54.000Z,5.82
2022-12-07T04:39:54.000Z,5.82
2022-12-07T04:40:53.000Z,5.81
2022-12-07T04:41:54.000Z,5.78
2022-12-07T04:42:53.000Z,5.79
2022-12-07T04:43:59.000Z,5.78
2022-12-07T04:44:54.000Z,5.79
2022-12-07T04:45:54.000Z,5.80
2022-12-07T04:46:54.000Z,5.77
2022-12-07T04:47:54.000Z,5.79
2022-12-07T04:48:54.000Z,5.80
2022-12-07T04:49:54.000Z,5.79
2022-12-07T04:50:54.000Z,5.80
2022-12-07T04:51:54.000Z,5.80
2022-12-07T04:52:54.000Z,5.79
2022-12-07T04:53:55.000Z,5.80
2022-12-07T04:54:54.000Z,5.81
2022-12-07T04:55:54.000Z,5.82
2022-12-07T04:56:54.000Z,5.79
2022-12-07T04:57:54.000Z,5.80
2022-12-07T04:58:54.000Z,5.81
2022-12-07T04:59:54.000Z,5.81
2022-12-07T05:00:54.000Z,5.81
2022-12-07T05:01:54.000Z,5.82
2022-12-07T05:02:54.000Z,5.80
2022-12-07T05:03:54.000Z,5.81
2022-12-07T05:04:54.000Z,5.79
2022-12-07T05:05:54.000Z,5.79
2022-12-07T05:06:54.000Z,5.85
2022-12-07T05:07:54.000Z,5.85
2022-12-07T05:08:54.000Z,5.85
2022-12-07T05:09:54.000Z,5.85
2022-12-07T05:10:54.000Z,5.85
2022-12-07T05:11:54.000Z,5.84
2022-12-07T05:12:54.000Z,5.82
2022-12-07T05:13:54.000Z,5.82
2022-12-07T05:14:54.000Z,5.82
2022-12-07T05:15:54.000Z,5.83
2022-12-07T05:16:54.000Z,5.84
2022-12-07T05:17:54.000Z,5.83
2022-12-07T05:18:54.000Z,5.82
2022-12-07T05:19:54.000Z,5.82
2022-12-07T05:20:54.000Z,5.83
2022-12-07T05:21:54.000Z,5.80
2022-12-07T05:22:53.000Z,5.78
2022-12-07T05:23:54.000Z,5.80
2022-12-07T05:24:54.000Z,5.80
2022-12-07T05:25:54.000Z,5.80
2022-12-07T05:26:54.000Z,5.80
2022-12-07T05:27:54.000Z,5.79
2022-12-07T05:28:55.000Z,5.80
2022-12-07T05:29:54.000Z,5.80
2022-12-07T05:30:54.000Z,5.84
2022-12-07T05:31:53.000Z,5.82
2022-12-07T05:32:54.000Z,5.82
2022-12-07T05:33:54.000Z,5.81
2022-12-07T05:34:54.000Z,5.82
2022-12-07T05:35:54.000Z,5.80
2022-12-07T05:36:54.000Z,5.81
2022-12-07T05:37:54.000Z,5.84
2022-12-07T05:38:54.000Z,5.82
2022-12-07T05:39:53.000Z,5.84
2022-12-07T05:40:53.000Z,5.83
2022-12-07T05:41:59.000Z,5.82
2022-12-07T05:42:54.000Z,5.83
2022-12-07T05:43:55.000Z,5.81
2022-12-07T05:44:54.000Z,5.82
2022-12-07T05:45:54.000Z,5.82
2022-12-07T05:46:54.000Z,5.83
2022-12-07T05:47:54.000Z,5.82
2022-12-07T05:48:54.000Z,5.81
2022-12-07T05:49:53.000Z,5.81
2022-12-07T05:50:54.000Z,5.79
2022-12-07T05:51:54.000Z,5.79
2022-12-07T05:52:54.000Z,5.80
2022-12-07T05:53:54.000Z,5.81
2022-12-07T05:54:54.000Z,5.81
2022-12-07T05:55:53.000Z,5.81
2022-12-07T05:56:54.000Z,5.80
2022-12-07T05:57:59.000Z,5.80
2022-12-07T05:58:59.000Z,5.79
2022-12-07T05:59:54.000Z,5.79
2022-12-07T06:00:55.000Z,5.79
2022-12-07T06:01:59.000Z,5.79
2022-12-07T06:02:54.000Z,5.79
2022-12-07T06:03:54.000Z,5.78
2022-12-07T06:04:53.000Z,5.77
2022-12-07T06:05:54.000Z,5.78
2022-12-07T06:06:54.000Z,5.78
2022-12-07T06:07:54.000Z,5.77
2022-12-07T06:08:54.000Z,5.78
2022-12-07T06:09:54.000Z,5.76
2022-12-07T06:11:08.000Z,5.76
2022-12-07T06:11:59.000Z,5.76
2022-12-07T06:12:53.000Z,5.76
2022-12-07T06:13:54.000Z,5.77
2022-12-07T06:14:54.000Z,5.77
2022-12-07T06:15:54.000Z,5.78
2022-12-07T06:16:54.000Z,5.77
2022-12-07T06:17:54.000Z,5.78
2022-12-07T06:18:54.000Z,5.78
2022-12-07T06:19:54.000Z,5.78
2022-12-07T06:20:53.000Z,5.78
2022-12-07T06:21:54.000Z,5.79
2022-12-07T06:22:54.000Z,5.78
2022-12-07T06:23:53.000Z,5.78
2022-12-07T06:24:53.000Z,5.80
2022-12-07T06:25:53.000Z,5.79
2022-12-07T06:26:54.000Z,5.80
2022-12-07T06:27:54.000Z,5.79
2022-12-07T06:28:54.000Z,5.79
2022-12-07T06:29:53.000Z,5.80
2022-12-07T06:30:58.000Z,5.80
2022-12-07T06:31:54.000Z,5.78
2022-12-07T06:32:54.000Z,5.79
2022-12-07T06:33:58.000Z,5.79
2022-12-07T06:34:54.000Z,5.80
2022-12-07T06:35:54.000Z,5.81
2022-12-07T06:36:54.000Z,5.81
2022-12-07T06:37:53.000Z,5.81
2022-12-07T06:38:54.000Z,5.81
2022-12-07T06:39:54.000Z,5.80
2022-12-07T06:40:54.000Z,5.81
2022-12-07T06:41:54.000Z,5.81
2022-12-07T06:42:54.000Z,5.81
2022-12-07T06:43:54.000Z,5.80
2022-12-07T06:44:53.000Z,5.81
2022-12-07T06:45:54.000Z,5.81
2022-12-07T06:46:54.000Z,5.81
2022-12-07T06:47:53.000Z,5.81
2022-12-07T06:48:53.000Z,5.79
2022-12-07T06:49:54.000Z,5.81
2022-12-07T06:50:54.000Z,5.81
2022-12-07T06:51:53.000Z,5.81
2022-12-07T06:52:53.000Z,5.81
2022-12-07T06:53:55.000Z,5.80
2022-12-07T06:54:53.000Z,5.81
2022-12-07T06:55:54.000Z,5.82
2022-12-07T06:56:53.000Z,5.82
2022-12-07T06:57:53.000Z,5.82
2022-12-07T06:58:54.000Z,5.82
2022-12-07T06:59:53.000Z,5.81
2022-12-07T07:00:54.000Z,5.81
2022-12-07T07:01:53.000Z,5.82
2022-12-07T07:02:54.000Z,5.82
2022-12-07T07:03:54.000Z,5.82
2022-12-07T07:04:53.000Z,5.81
2022-12-07T07:05:53.000Z,5.81
2022-12-07T07:06:53.000Z,5.82
2022-12-07T07:07:53.000Z,5.82
2022-12-07T07:08:53.000Z,5.81
2022-12-07T07:09:54.000Z,5.81
2022-12-07T07:10:53.000Z,5.81
2022-12-07T07:11:54.000Z,5.81
2022-12-07T07:12:54.000Z,5.80
2022-12-07T07:13:56.000Z,5.80
2022-12-07T07:14:53.000Z,5.81
2022-12-07T07:15:54.000Z,5.79
2022-12-07T07:16:53.000Z,5.79
2022-12-07T07:17:54.000Z,5.80
2022-12-07T07:18:53.000Z,5.80
2022-12-07T07:19:53.000Z,5.80
2022-12-07T07:20:54.000Z,5.80
2022-12-07T07:21:53.000Z,5.79
2022-12-07T07:22:54.000Z,5.79
2022-12-07T07:23:53.000Z,5.79
2022-12-07T07:24:53.000Z,5.79
2022-12-07T07:25:53.000Z,5.80
2022-12-07T07:26:53.000Z,5.79
2022-12-07T07:27:53.000Z,5.79
2022-12-07T07:28:53.000Z,5.79
2022-12-07T07:29:53.000Z,5.79
2022-12-07T07:30:53.000Z,5.79
2022-12-07T07:31:53.000Z,5.79
2022-12-07T07:32:57.000Z,5.79
2022-12-07T07:33:53.000Z,5.80
2022-12-07T07:34:54.000Z,5.80
2022-12-07T07:35:53.000Z,5.80
2022-12-07T07:36:53.000Z,5.80
2022-12-07T07:37:54.000Z,5.81
2022-12-07T07:38:53.000Z,5.84
2022-12-07T07:39:53.000Z,5.86
2022-12-07T07:40:53.000Z,5.83
2022-12-07T07:41:53.000Z,5.79
2022-12-07T07:42:54.000Z,5.81
2022-12-07T07:43:53.000Z,5.78
2022-12-07T07:44:53.000Z,5.79
2022-12-07T07:45:53.000Z,5.81
2022-12-07T07:46:54.000Z,5.80
2022-12-07T07:47:53.000Z,5.80
2022-12-07T07:48:54.000Z,5.80
2022-12-07T07:49:53.000Z,5.79
2022-12-07T07:50:53.000Z,5.79
2022-12-07T07:51:53.000Z,5.79
2022-12-07T07:52:53.000Z,5.80
2022-12-07T07:53:54.000Z,5.80
2022-12-07T07:54:54.000Z,5.79
2022-12-07T07:55:54.000Z,5.78
2022-12-07T07:56:54.000Z,5.79
2022-12-07T07:57:54.000Z,5.76
2022-12-07T07:58:54.000Z,5.75
2022-12-07T07:59:54.000Z,5.76
2022-12-07T08:00:54.000Z,5.74
2022-12-07T08:01:54.000Z,5.73
2022-12-07T08:02:54.000Z,5.76
2022-12-07T08:03:54.000Z,5.75
2022-12-07T08:04:53.000Z,5.75
2022-12-07T08:05:54.000Z,5.75
2022-12-07T08:06:54.000Z,5.75
2022-12-07T08:07:54.000Z,5.74
2022-12-07T08:08:53.000Z,5.75
2022-12-07T08:09:54.000Z,5.75
2022-12-07T08:10:54.000Z,5.75
2022-12-07T08:11:53.000Z,5.73
2022-12-07T08:12:59.000Z,5.74
2022-12-07T08:13:54.000Z,5.74
2022-12-07T08:14:54.000Z,5.75
2022-12-07T08:15:54.000Z,5.74
2022-12-07T08:16:54.000Z,5.69
2022-12-07T08:17:54.000Z,5.71
2022-12-07T08:18:54.000Z,5.72
2022-12-07T08:19:53.000Z,5.73
2022-12-07T08:20:59.000Z,5.75
2022-12-07T08:21:55.000Z,5.74
2022-12-07T08:22:54.000Z,5.75
2022-12-07T08:23:54.000Z,5.76
2022-12-07T08:24:54.000Z,5.75
2022-12-07T08:25:54.000Z,5.77
2022-12-07T08:26:54.000Z,5.76
2022-12-07T08:27:54.000Z,5.76
2022-12-07T08:28:54.000Z,5.75
2022-12-07T08:29:54.000Z,5.71
2022-12-07T08:31:04.000Z,5.73
2022-12-07T08:31:54.000Z,5.73
2022-12-07T08:32:54.000Z,5.72
2022-12-07T08:33:55.000Z,5.73
2022-12-07T08:34:54.000Z,5.74
2022-12-07T08:35:54.000Z,5.74
2022-12-07T08:36:54.000Z,5.73
2022-12-07T08:37:54.000Z,5.72
2022-12-07T08:38:54.000Z,5.74
2022-12-07T08:39:54.000Z,5.73
2022-12-07T08:40:56.000Z,5.72
2022-12-07T08:41:54.000Z,5.72
2022-12-07T08:42:54.000Z,5.72
2022-12-07T08:43:54.000Z,5.73
2022-12-07T08:44:54.000Z,5.72
2022-12-07T08:46:06.000Z,5.72
2022-12-07T08:46:59.000Z,5.70
2022-12-07T08:48:06.000Z,5.70
2022-12-07T08:49:04.000Z,5.70
2022-12-07T08:49:54.000Z,5.71
2022-12-07T08:50:54.000Z,5.70
2022-12-07T08:51:54.000Z,5.70
2022-12-07T08:52:57.000Z,5.67
2022-12-07T08:53:57.000Z,5.66
2022-12-07T08:54:53.000Z,5.66
2022-12-07T08:55:56.000Z,5.67
2022-12-07T08:56:54.000Z,5.66
2022-12-07T08:57:54.000Z,5.68
2022-12-07T08:58:54.000Z,5.67
2022-12-07T08:59:53.000Z,5.66
2022-12-07T09:00:53.000Z,5.67
2022-12-07T09:01:53.000Z,5.68
2022-12-07T09:02:53.000Z,5.68
2022-12-07T09:03:53.000Z,5.68
2022-12-07T09:04:53.000Z,5.69
2022-12-07T09:05:53.000Z,5.70
2022-12-07T09:06:54.000Z,5.67
2022-12-07T09:07:58.000Z,5.68
2022-12-07T09:08:57.000Z,5.66
2022-12-07T09:09:53.000Z,5.63
2022-12-07T09:10:53.000Z,5.67
2022-12-07T09:11:53.000Z,5.68
2022-12-07T09:12:53.000Z,5.69
2022-12-07T09:13:53.000Z,5.70
2022-12-07T09:14:53.000Z,5.73
2022-12-07T09:15:53.000Z,5.74
2022-12-07T09:16:53.000Z,5.75
2022-12-07T09:17:53.000Z,5.73
2022-12-07T09:18:53.000Z,5.73
2022-12-07T09:19:53.000Z,5.68
2022-12-07T09:20:54.000Z,5.71
2022-12-07T09:21:53.000Z,5.70
2022-12-07T09:22:53.000Z,5.71
2022-12-07T09:23:53.000Z,5.71
2022-12-07T09:24:54.000Z,5.70
2022-12-07T09:25:53.000Z,5.71
2022-12-07T09:26:54.000Z,5.72
2022-12-07T09:27:58.000Z,5.72
2022-12-07T09:28:54.000Z,5.70
2022-12-07T09:29:54.000Z,5.71
2022-12-07T09:30:54.000Z,5.73
2022-12-07T09:31:54.000Z,5.75
2022-12-07T09:32:56.000Z,5.74
2022-12-07T09:34:00.000Z,5.75
2022-12-07T09:34:54.000Z,5.74
2022-12-07T09:35:54.000Z,5.75
2022-12-07T09:36:53.000Z,5.75
2022-12-07T09:37:54.000Z,5.73
2022-12-07T09:38:54.000Z,5.74
2022-12-07T09:39:54.000Z,5.74
2022-12-07T09:40:54.000Z,5.72
2022-12-07T09:41:54.000Z,5.73
2022-12-07T09:42:54.000Z,5.71
2022-12-07T09:44:02.000Z,5.73
2022-12-07T09:44:54.000Z,5.72
2022-12-07T09:45:55.000Z,5.73
2022-12-07T09:46:55.000Z,5.73
2022-12-07T09:47:54.000Z,5.75
2022-12-07T09:48:54.000Z,5.75
2022-12-07T09:50:05.000Z,5.75
2022-12-07T09:50:57.000Z,5.73
2022-12-07T09:52:00.000Z,5.73
2022-12-07T09:53:03.000Z,5.72
2022-12-07T09:53:57.000Z,5.76
2022-12-07T09:54:54.000Z,5.75
2022-12-07T09:55:54.000Z,5.75
2022-12-07T09:56:53.000Z,5.74
2022-12-07T09:57:54.000Z,5.76
2022-12-07T09:58:58.000Z,5.75
2022-12-07T09:59:58.000Z,5.75
2022-12-07T10:01:09.000Z,5.77
2022-12-07T10:01:54.000Z,5.75
2022-12-07T10:02:59.000Z,5.75
2022-12-07T10:04:01.000Z,5.76
2022-12-07T10:04:55.000Z,5.76
2022-12-07T10:05:54.000Z,5.77
2022-12-07T10:06:53.000Z,5.76
2022-12-07T10:07:53.000Z,5.76
2022-12-07T10:08:53.000Z,5.77
2022-12-07T10:09:53.000Z,5.77
2022-12-07T10:10:55.000Z,5.77
2022-12-07T10:12:06.000Z,5.78
2022-12-07T10:13:01.000Z,5.77
2022-12-07T10:13:53.000Z,5.74
2022-12-07T10:15:03.000Z,5.76
2022-12-07T10:15:56.000Z,5.74
2022-12-07T10:16:53.000Z,5.76
2022-12-07T10:17:53.000Z,5.76
2022-12-07T10:18:54.000Z,5.77
2022-12-07T10:20:15.000Z,5.78
2022-12-07T10:21:03.000Z,5.80
2022-12-07T10:22:03.000Z,5.81
2022-12-07T10:23:12.000Z,5.81
2022-12-07T10:24:03.000Z,5.80
2022-12-07T10:24:53.000Z,5.80
2022-12-07T10:25:54.000Z,5.79
2022-12-07T10:26:54.000Z,5.75
2022-12-07T10:27:59.000Z,5.77
2022-12-07T10:28:57.000Z,5.78
2022-12-07T10:29:53.000Z,5.80
2022-12-07T10:31:00.000Z,5.80
2022-12-07T10:32:13.000Z,5.80
2022-12-07T10:32:53.000Z,5.82
2022-12-07T10:33:56.000Z,5.82
2022-12-07T10:35:13.000Z,5.81
2022-12-07T10:35:53.000Z,5.81
2022-12-07T10:37:13.000Z,5.80
2022-12-07T10:37:56.000Z,5.80
2022-12-07T10:39:09.000Z,5.80
2022-12-07T10:39:55.000Z,5.80
2022-12-07T10:41:02.000Z,5.82
2022-12-07T10:41:57.000Z,5.82
2022-12-07T10:43:02.000Z,5.83
2022-12-07T10:43:55.000Z,5.82
2022-12-07T10:45:03.000Z,5.81
2022-12-07T10:46:19.000Z,5.86
2022-12-07T10:47:23.000Z,5.85
2022-12-07T10:48:03.000Z,5.86
2022-12-07T10:49:06.000Z,5.86
2022-12-07T10:50:03.000Z,5.84
2022-12-07T10:51:08.000Z,5.86
2022-12-07T10:52:03.000Z,5.83
2022-12-07T10:53:13.000Z,5.83
2022-12-07T10:54:09.000Z,5.84
2022-12-07T10:55:11.000Z,5.86
2022-12-07T10:56:08.000Z,5.86
2022-12-07T10:57:09.000Z,5.87
2022-12-07T10:58:11.000Z,5.88
2022-12-07T10:59:03.000Z,5.89
2022-12-07T11:00:04.000Z,5.88
2022-12-07T11:01:13.000Z,5.90
2022-12-07T11:02:19.000Z,5.97
2022-12-07T11:03:16.000Z,5.95
2022-12-07T11:04:04.000Z,5.94
2022-12-07T11:05:13.000Z,5.95
2022-12-07T11:06:09.000Z,5.95
2022-12-07T11:07:04.000Z,5.94
2022-12-07T11:08:14.000Z,5.86
2022-12-07T11:09:08.000Z,5.87
2022-12-07T11:10:14.000Z,5.88
2022-12-07T11:11:24.000Z,5.90
2022-12-07T11:12:08.000Z,5.89
2022-12-07T11:13:11.000Z,5.91
2022-12-07T11:14:04.000Z,5.90
2022-12-07T11:15:13.000Z,5.94
2022-12-07T11:16:16.000Z,5.93
2022-12-07T11:17:17.000Z,5.95
2022-12-07T11:18:10.000Z,5.95
2022-12-07T11:19:04.000Z,5.95
2022-12-07T11:20:04.000Z,5.95
2022-12-07T11:21:19.000Z,5.95
2022-12-07T11:22:01.000Z,5.90
2022-12-07T11:23:17.000Z,5.87
2022-12-07T11:24:16.000Z,5.89
2022-12-07T11:25:03.000Z,5.91
2022-12-07T11:26:05.000Z,5.89
2022-12-07T11:27:04.000Z,5.89
2022-12-07T11:28:18.000Z,5.91
2022-12-07T11:29:10.000Z,5.92
2022-12-07T11:30:04.000Z,5.92
2022-12-07T11:31:07.000Z,5.92
2022-12-07T11:32:16.000Z,5.93
2022-12-07T11:33:04.000Z,5.95
2022-12-07T11:34:04.000Z,5.92
2022-12-07T11:35:09.000Z,5.94
2022-12-07T11:36:06.000Z,5.93
2022-12-07T11:36:55.000Z,5.94
2022-12-07T11:38:14.000Z,5.94
2022-12-07T11:38:58.000Z,5.94
2022-12-07T11:40:00.000Z,5.96
2022-12-07T11:41:00.000Z,5.94
2022-12-07T11:42:03.000Z,5.92
2022-12-07T11:43:03.000Z,5.95
2022-12-07T11:44:03.000Z,5.96
2022-12-07T11:45:17.000Z,5.96
2022-12-07T11:46:02.000Z,5.97
2022-12-07T11:47:07.000Z,5.95
2022-12-07T11:47:59.000Z,5.94
2022-12-07T11:49:06.000Z,5.93
2022-12-07T11:50:08.000Z,5.93
2022-12-07T11:50:58.000Z,5.96
2022-12-07T11:51:59.000Z,5.94
2022-12-07T11:53:03.000Z,5.98
2022-12-07T11:54:01.000Z,5.97
2022-12-07T11:54:54.000Z,5.96
2022-12-07T11:56:11.000Z,5.96
2022-12-07T11:56:56.000Z,5.96
2022-12-07T11:58:02.000Z,5.97
2022-12-07T11:58:58.000Z,5.95
2022-12-07T12:00:00.000Z,5.97
2022-12-07T12:01:07.000Z,5.98
2022-12-07T12:02:09.000Z,5.98
2022-12-07T12:03:04.000Z,5.93
2022-12-07T12:04:01.000Z,5.95
2022-12-07T12:05:01.000Z,5.99
2022-12-07T12:05:53.000Z,6.00
2022-12-07T12:06:54.000Z,5.94
2022-12-07T12:08:12.000Z,5.90
2022-12-07T12:09:30.000Z,5.92
2022-12-07T12:10:14.000Z,5.94
2022-12-07T12:11:12.000Z,5.94
2022-12-07T12:12:03.000Z,5.94
2022-12-07T12:13:45.000Z,5.91
2022-12-07T12:14:50.000Z,5.94
2022-12-07T12:15:03.000Z,5.94
2022-12-07T12:16:03.000Z,5.94
2022-12-07T12:17:06.000Z,5.92
2022-12-07T12:18:10.000Z,5.95
2022-12-07T12:19:20.000Z,5.94
2022-12-07T12:20:03.000Z,5.95
2022-12-07T12:21:03.000Z,5.91
2022-12-07T12:22:14.000Z,5.93
2022-12-07T12:23:14.000Z,5.93
2022-12-07T12:24:01.000Z,5.91
2022-12-07T12:24:55.000Z,5.90
2022-12-07T12:26:00.000Z,5.92
2022-12-07T12:27:03.000Z,5.94
2022-12-07T12:27:58.000Z,5.94
2022-12-07T12:29:17.000Z,5.95
2022-12-07T12:29:56.000Z,5.94
2022-12-07T12:31:04.000Z,5.94
2022-12-07T12:32:04.000Z,5.88
2022-12-07T12:33:16.000Z,5.92
2022-12-07T12:33:56.000Z,5.95
2022-12-07T12:35:00.000Z,5.95
2022-12-07T12:36:04.000Z,5.98
2022-12-07T12:36:54.000Z,5.98
2022-12-07T12:37:55.000Z,5.97
2022-12-07T12:39:04.000Z,5.98
2022-12-07T12:40:04.000Z,5.96
2022-12-07T12:40:55.000Z,5.98
2022-12-07T12:42:18.000Z,5.98
2022-12-07T12:42:55.000Z,5.99
2022-12-07T12:43:54.000Z,5.99
2022-12-07T12:45:11.000Z,6.01
2022-12-07T12:46:14.000Z,6.02
2022-12-07T12:46:58.000Z,6.02
2022-12-07T12:48:19.000Z,6.02
2022-12-07T12:48:56.000Z,6.01
2022-12-07T12:50:16.000Z,5.99
2022-12-07T12:51:04.000Z,6.01
2022-12-07T12:51:59.000Z,5.99
2022-12-07T12:53:11.000Z,5.98
2022-12-07T12:54:04.000Z,5.96
2022-12-07T12:55:00.000Z,6.00
2022-12-07T12:56:22.000Z,6.01
2022-12-07T12:57:03.000Z,6.01
2022-12-07T12:58:03.000Z,6.02
2022-12-07T12:59:23.000Z,6.03
2022-12-07T12:59:58.000Z,6.05
2022-12-07T13:01:03.000Z,6.04
2022-12-07T13:02:03.000Z,6.03
2022-12-07T13:02:55.000Z,5.96
2022-12-07T13:03:55.000Z,5.93
2022-12-07T13:04:59.000Z,5.97
2022-12-07T13:06:03.000Z,5.96
2022-12-07T13:06:53.000Z,5.97
2022-12-07T13:07:59.000Z,5.96
2022-12-07T13:08:57.000Z,5.98
2022-12-07T13:09:53.000Z,5.98
2022-12-07T13:11:08.000Z,5.98
2022-12-07T13:12:03.000Z,5.95
2022-12-07T13:13:13.000Z,5.98
2022-12-07T13:14:13.000Z,5.97
2022-12-07T13:14:57.000Z,5.98
2022-12-07T13:16:09.000Z,5.99
2022-12-07T13:16:53.000Z,5.99
2022-12-07T13:17:57.000Z,6.01
2022-12-07T13:18:58.000Z,6.00